Terminal Aerodrome Forecast
Issued by NWS

Current Version | Previous Version | Text Only | Print | Product List | Glossary On
Versions: 1 2 3 4 5 6 7 8 9 10 11 12 13 14 15 16
000
FTAK31 PAJN 041740
TAFAKT
TAF
PAKT 041740Z 0418/0518 34006KT P6SM -SHRA SCT008 BKN020 OVC040
     FM042200 14006KT P6SM VCSH BKN025 OVC050
     FM050200 14006KT P6SM VCSH OVC050
     FM050400 VRB04KT P6SM VCSH BKN050
     FM051000 00000KT P6SM VCSH SCT025 BKN050
     FM051500 14005KT P6SM VCSH SCT020 OVC040=

USA.gov is the U.S. government's official web portal to all federal, state and local government web resources and services.